Time;durP1;ratioP1;P1;durP2;ratioP2;P2;SDS_P1;SDS_P2;PMS_P1;PMS_P2;Temp;Humidity;BMP_temperature;BMP_pressure;BME280_temperature;BME280_humidity;BME280_pressure;Samples;Min_cycle;Max_cycle;Signal;HPM_P1;HPM_P2
2022/07/11 00:01:10;;;;;;;3.38;1.67;;;;;;;;;;5033479;28;20055;-81
2022/07/11 00:03:36;;;;;;;2.25;1.50;;;;;;;;;;5048915;28;20040;-81
2022/07/11 00:06:04;;;;;;;4.22;2.28;;;;;;;;;;5041618;28;20510;-81
2022/07/11 00:08:30;;;;;;;4.50;2.10;;;;;;;;;;5038761;28;20047;-80
2022/07/11 00:10:57;;;;;;;3.80;2.40;;;;;;;;;;5036224;28;20044;-81
2022/07/11 00:13:23;;;;;;;7.13;3.00;;;;;;;;;;5067962;28;20045;-81
2022/07/11 00:15:49;;;;;;;5.25;2.00;;;;;;;;;;5022354;28;20123;-81
2022/07/11 00:18:16;;;;;;;6.22;2.17;;;;;;;;;;5048210;28;20048;-81
2022/07/11 00:20:42;;;;;;;6.72;2.33;;;;;;;;;;5063053;28;20040;-81
2022/07/11 00:23:08;;;;;;;4.07;2.28;;;;;;;;;;5039669;28;20036;-81
2022/07/11 00:25:34;;;;;;;5.00;1.65;;;;;;;;;;5043280;28;20051;-81
2022/07/11 00:28:00;;;;;;;6.68;2.42;;;;;;;;;;5043483;28;20036;-81
2022/07/11 00:30:26;;;;;;;8.77;3.15;;;;;;;;;;5028541;28;20127;-81
2022/07/11 00:32:52;;;;;;;6.80;2.92;;;;;;;;;;5053214;28;20503;-80
2022/07/11 00:35:18;;;;;;;5.85;2.35;;;;;;;;;;5060538;28;20067;-80
2022/07/11 00:37:45;;;;;;;6.20;2.58;;;;;;;;;;5028011;28;20132;-81
2022/07/11 00:40:11;;;;;;;10.18;3.75;;;;;;;;;;5042550;28;20110;-81
2022/07/11 00:42:38;;;;;;;5.40;2.70;;;;;;;;;;5014731;28;20068;-81
2022/07/11 00:45:04;;;;;;;4.97;2.70;;;;;;;;;;5056662;28;20668;-81
2022/07/11 00:47:30;;;;;;;5.88;2.50;;;;;;;;;;5015243;28;20095;-81
2022/07/11 00:49:56;;;;;;;5.32;2.97;;;;;;;;;;5053600;28;20515;-81
2022/07/11 00:52:23;;;;;;;5.15;2.75;;;;;;;;;;5043611;28;20118;-80
2022/07/11 00:54:49;;;;;;;7.53;2.88;;;;;;;;;;5039070;28;20032;-81
2022/07/11 00:57:16;;;;;;;5.05;2.72;;;;;;;;;;5038722;28;20036;-81
2022/07/11 00:59:42;;;;;;;6.45;2.60;;;;;;;;;;5050927;28;20041;-81
2022/07/11 01:02:09;;;;;;;6.63;3.25;;;;;;;;;;5052304;28;20044;-81
2022/07/11 01:04:35;;;;;;;5.13;2.47;;;;;;;;;;5048798;28;20126;-81
2022/07/11 01:07:01;;;;;;;7.57;2.92;;;;;;;;;;5056241;28;20051;-81
2022/07/11 01:09:27;;;;;;;8.25;2.65;;;;;;;;;;5030702;28;20442;-81
2022/07/11 01:11:53;;;;;;;5.75;3.00;;;;;;;;;;5053468;28;20036;-81
2022/07/11 01:14:19;;;;;;;7.07;3.15;;;;;;;;;;5025990;28;20039;-81
2022/07/11 01:16:46;;;;;;;6.00;2.88;;;;;;;;;;5020359;28;20035;-81
2022/07/11 01:19:12;;;;;;;6.20;2.80;;;;;;;;;;5058822;28;20067;-81
2022/07/11 01:21:40;;;;;;;8.43;3.55;;;;;;;;;;5046165;28;20059;-81
2022/07/11 01:24:06;;;;;;;9.73;2.70;;;;;;;;;;5025398;28;20045;-81
2022/07/11 01:26:33;;;;;;;5.07;2.75;;;;;;;;;;5071389;28;20048;-81
2022/07/11 01:29:10;;;;;;;5.90;3.20;;;;;;;;;;5052804;28;20063;-81
2022/07/11 01:31:43;;;;;;;5.10;3.03;;;;;;;;;;5040202;28;20036;-81
2022/07/11 01:34:09;;;;;;;5.97;3.58;;;;;;;;;;5023278;28;20032;-81
2022/07/11 01:36:35;;;;;;;6.20;3.28;;;;;;;;;;5068457;28;20032;-81
2022/07/11 01:39:02;;;;;;;7.63;3.15;;;;;;;;;;5030776;28;20053;-81
2022/07/11 01:41:28;;;;;;;4.80;3.08;;;;;;;;;;5052667;28;20044;-81
2022/07/11 01:43:54;;;;;;;4.97;2.40;;;;;;;;;;5051093;28;20050;-81
2022/07/11 01:46:21;;;;;;;8.10;3.30;;;;;;;;;;5019680;28;20519;-81
2022/07/11 01:48:47;;;;;;;8.13;3.38;;;;;;;;;;5029062;28;20037;-81
2022/07/11 01:51:14;;;;;;;5.20;2.95;;;;;;;;;;5014569;28;20039;-81
2022/07/11 01:53:40;;;;;;;7.72;3.42;;;;;;;;;;5030882;28;20033;-81
2022/07/11 01:56:06;;;;;;;4.78;2.70;;;;;;;;;;5051758;28;20043;-81
2022/07/11 01:58:32;;;;;;;7.18;2.67;;;;;;;;;;5042543;28;20127;-81
2022/07/11 02:00:59;;;;;;;4.95;2.53;;;;;;;;;;5034365;28;20048;-81
2022/07/11 02:03:25;;;;;;;11.15;3.47;;;;;;;;;;5051299;28;20127;-81
2022/07/11 02:05:51;;;;;;;4.90;2.63;;;;;;;;;;5014710;28;20048;-81
2022/07/11 02:08:17;;;;;;;4.28;2.72;;;;;;;;;;5029182;28;20044;-81
2022/07/11 02:10:51;;;;;;;5.95;2.22;;;;;;;;;;5032132;28;20028;-81
2022/07/11 02:13:18;;;;;;;6.70;2.80;;;;;;;;;;5039539;28;20045;-81
2022/07/11 02:15:45;;;;;;;6.03;2.75;;;;;;;;;;5056635;28;20198;-81
2022/07/11 02:18:12;;;;;;;4.47;2.22;;;;;;;;;;5039826;28;20145;-81
2022/07/11 02:20:39;;;;;;;6.00;2.95;;;;;;;;;;5046350;28;20041;-81
2022/07/11 02:23:06;;;;;;;6.18;2.78;;;;;;;;;;5061385;28;20053;-81
2022/07/11 02:25:34;;;;;;;3.47;2.13;;;;;;;;;;5029494;28;20552;-81
2022/07/11 02:28:01;;;;;;;2.95;1.77;;;;;;;;;;5056403;28;20048;-81
2022/07/11 02:30:27;;;;;;;4.05;2.38;;;;;;;;;;5040034;28;20033;-81
2022/07/11 02:32:53;;;;;;;5.05;2.63;;;;;;;;;;5025102;28;20070;-81
2022/07/11 02:35:20;;;;;;;5.50;2.53;;;;;;;;;;5022364;28;20053;-80
2022/07/11 02:37:46;;;;;;;4.88;2.40;;;;;;;;;;5060381;28;20483;-80
2022/07/11 02:40:13;;;;;;;5.75;2.25;;;;;;;;;;5044725;28;20438;-80
2022/07/11 02:42:39;;;;;;;3.70;2.00;;;;;;;;;;5040293;28;20064;-81
2022/07/11 02:45:06;;;;;;;3.17;2.00;;;;;;;;;;5040110;28;20051;-81
2022/07/11 02:47:33;;;;;;;4.57;2.42;;;;;;;;;;5032627;28;20176;-81
2022/07/11 02:49:59;;;;;;;2.88;1.83;;;;;;;;;;5022820;28;20044;-81
2022/07/11 02:52:25;;;;;;;4.38;2.63;;;;;;;;;;5040285;28;20040;-80
2022/07/11 02:54:51;;;;;;;6.65;2.38;;;;;;;;;;5046428;28;20145;-80
2022/07/11 02:57:17;;;;;;;6.43;2.65;;;;;;;;;;5023597;28;20142;-81
2022/07/11 02:59:43;;;;;;;7.05;3.00;;;;;;;;;;5032728;28;20440;-80
2022/07/11 03:02:09;;;;;;;3.42;2.03;;;;;;;;;;5068577;28;20050;-81
2022/07/11 03:04:35;;;;;;;8.45;2.88;;;;;;;;;;5065631;28;20063;-80
2022/07/11 03:07:01;;;;;;;3.38;2.50;;;;;;;;;;5049596;28;20048;-80
2022/07/11 03:09:27;;;;;;;4.03;2.05;;;;;;;;;;5037369;28;20049;-80
2022/07/11 03:11:53;;;;;;;3.90;2.03;;;;;;;;;;5037759;28;20747;-80
2022/07/11 03:14:20;;;;;;;3.00;1.67;;;;;;;;;;5028708;28;20070;-80
2022/07/11 03:16:46;;;;;;;2.13;1.20;;;;;;;;;;5053435;28;20123;-79
2022/07/11 03:19:12;;;;;;;3.10;1.50;;;;;;;;;;5033775;28;20082;-80
2022/07/11 03:21:38;;;;;;;3.83;1.80;;;;;;;;;;5039296;28;20040;-80
2022/07/11 03:24:05;;;;;;;2.30;1.42;;;;;;;;;;5059075;28;20511;-80
2022/07/11 03:26:31;;;;;;;2.83;1.65;;;;;;;;;;5060491;28;20039;-80
2022/07/11 03:28:57;;;;;;;3.10;1.65;;;;;;;;;;5028412;28;20383;-80
2022/07/11 03:31:23;;;;;;;1.98;1.33;;;;;;;;;;5061464;28;20043;-80
2022/07/11 03:33:49;;;;;;;3.60;1.70;;;;;;;;;;5022279;28;20803;-80
2022/07/11 03:36:15;;;;;;;2.70;1.33;;;;;;;;;;5052258;28;20036;-80
2022/07/11 03:38:41;;;;;;;4.82;1.45;;;;;;;;;;5054815;28;20053;-80
2022/07/11 03:41:07;;;;;;;2.33;1.52;;;;;;;;;;5055636;28;20048;-80
2022/07/11 03:43:33;;;;;;;2.13;1.33;;;;;;;;;;5022810;28;20037;-80
2022/07/11 03:45:59;;;;;;;3.58;1.50;;;;;;;;;;5032351;28;20045;-79
2022/07/11 03:48:26;;;;;;;4.20;1.50;;;;;;;;;;5054610;28;20044;-80
2022/07/11 03:50:52;;;;;;;3.50;1.38;;;;;;;;;;5038929;28;20082;-80
2022/07/11 03:53:18;;;;;;;2.60;1.38;;;;;;;;;;5054376;28;20094;-80
2022/07/11 03:55:44;;;;;;;2.80;1.42;;;;;;;;;;5045079;28;20065;-79
2022/07/11 03:58:10;;;;;;;6.43;1.15;;;;;;;;;;5038918;28;20075;-79
2022/07/11 04:00:36;;;;;;;2.05;1.23;;;;;;;;;;5039869;28;20094;-80
2022/07/11 04:03:02;;;;;;;4.32;1.63;;;;;;;;;;5049385;28;20379;-80
2022/07/11 04:05:29;;;;;;;5.95;1.60;;;;;;;;;;5033172;28;20033;-79
2022/07/11 04:07:55;;;;;;;4.15;1.50;;;;;;;;;;5036820;28;20102;-79
2022/07/11 04:10:21;;;;;;;4.07;1.77;;;;;;;;;;5035519;28;20368;-79
2022/07/11 04:12:47;;;;;;;4.72;1.40;;;;;;;;;;5037882;28;20052;-80
2022/07/11 04:15:15;;;;;;;2.05;1.25;;;;;;;;;;5054461;28;20036;-79
2022/07/11 04:17:43;;;;;;;5.05;1.90;;;;;;;;;;5061113;28;20409;-80
2022/07/11 04:20:11;;;;;;;3.95;1.42;;;;;;;;;;5045583;28;20548;-79
2022/07/11 04:22:38;;;;;;;3.42;1.63;;;;;;;;;;5019710;28;20039;-79
2022/07/11 04:25:04;;;;;;;4.38;1.30;;;;;;;;;;5052259;28;20039;-79
2022/07/11 04:27:36;;;;;;;2.20;1.40;;;;;;;;;;5035779;28;20496;-79
2022/07/11 04:30:03;;;;;;;2.63;1.33;;;;;;;;;;5027231;28;20041;-79
2022/07/11 04:32:29;;;;;;;2.92;1.10;;;;;;;;;;5049026;28;20380;-79
2022/07/11 04:34:55;;;;;;;2.55;1.20;;;;;;;;;;5024263;28;20512;-79
2022/07/11 04:37:21;;;;;;;3.08;0.93;;;;;;;;;;5029723;28;20331;-80
2022/07/11 04:39:48;;;;;;;2.78;1.00;;;;;;;;;;5032263;28;20276;-79
2022/07/11 04:42:14;;;;;;;1.95;0.90;;;;;;;;;;5047636;28;20041;-79
2022/07/11 04:44:41;;;;;;;2.38;0.98;;;;;;;;;;5034725;28;20097;-79
2022/07/11 04:47:07;;;;;;;2.95;1.25;;;;;;;;;;5028638;28;20044;-80
2022/07/11 04:49:33;;;;;;;3.53;0.98;;;;;;;;;;5059293;28;20145;-80
2022/07/11 04:52:00;;;;;;;2.80;1.15;;;;;;;;;;5035848;28;20428;-79
2022/07/11 04:54:26;;;;;;;2.65;0.90;;;;;;;;;;5032070;28;20068;-81
2022/07/11 04:56:53;;;;;;;3.85;1.45;;;;;;;;;;5031237;28;20098;-81
2022/07/11 04:59:19;;;;;;;2.58;0.90;;;;;;;;;;5048943;28;20050;-81
2022/07/11 05:01:45;;;;;;;3.83;1.20;;;;;;;;;;5039445;28;20044;-81
2022/07/11 05:04:11;;;;;;;1.65;1.17;;;;;;;;;;5037391;28;20044;-81
2022/07/11 05:06:38;;;;;;;2.42;1.00;;;;;;;;;;5057834;28;20068;-81
2022/07/11 05:09:07;;;;;;;1.65;0.95;;;;;;;;;;5050669;28;20565;-81
2022/07/11 05:11:34;;;;;;;3.47;1.00;;;;;;;;;;5053843;28;20036;-80
2022/07/11 05:14:00;;;;;;;3.35;1.17;;;;;;;;;;5051080;28;20447;-79
2022/07/11 05:16:26;;;;;;;1.92;0.75;;;;;;;;;;5056873;28;20036;-80
2022/07/11 05:18:52;;;;;;;2.00;0.70;;;;;;;;;;5052006;28;20144;-80
2022/07/11 05:21:23;;;;;;;1.10;0.75;;;;;;;;;;5037352;28;20101;-80
2022/07/11 05:23:49;;;;;;;1.73;0.63;;;;;;;;;;5016505;28;20083;-79
2022/07/11 05:26:15;;;;;;;1.38;0.73;;;;;;;;;;5052300;28;20105;-79
2022/07/11 05:28:42;;;;;;;1.95;0.80;;;;;;;;;;5001905;28;20044;-79
2022/07/11 05:31:08;;;;;;;2.75;0.70;;;;;;;;;;5035548;28;20980;-79
2022/07/11 05:33:34;;;;;;;1.30;0.75;;;;;;;;;;5047724;28;20040;-79
2022/07/11 05:36:01;;;;;;;1.58;0.70;;;;;;;;;;5047020;28;20051;-79
2022/07/11 05:38:27;;;;;;;0.88;0.70;;;;;;;;;;5052787;28;20799;-81
2022/07/11 05:40:54;;;;;;;0.47;0.40;;;;;;;;;;5033150;28;20056;-81
2022/07/11 05:43:20;;;;;;;0.57;0.50;;;;;;;;;;5045454;28;20115;-80
2022/07/11 05:45:46;;;;;;;0.80;0.60;;;;;;;;;;5023051;28;20052;-80
2022/07/11 05:48:12;;;;;;;0.38;0.38;;;;;;;;;;5036486;28;20132;-81
2022/07/11 05:50:38;;;;;;;2.28;0.60;;;;;;;;;;5059125;28;20463;-83
2022/07/11 05:53:04;;;;;;;2.40;0.40;;;;;;;;;;5038993;28;20040;-83
2022/07/11 05:55:31;;;;;;;0.98;0.47;;;;;;;;;;5056521;28;20551;-83
2022/07/11 05:57:57;;;;;;;2.05;0.47;;;;;;;;;;5022142;28;20071;-81
2022/07/11 06:00:25;;;;;;;0.55;0.52;;;;;;;;;;5029731;28;20051;-82
2022/07/11 06:02:51;;;;;;;0.52;0.47;;;;;;;;;;5039158;28;20032;-85
2022/07/11 06:05:17;;;;;;;0.73;0.50;;;;;;;;;;5036460;28;20405;-80
2022/07/11 06:10:45;;;;;;;1.98;0.95;;;;;;;;;;4988044;28;20100;-79
2022/07/11 06:13:11;;;;;;;4.93;0.80;;;;;;;;;;5035577;28;20444;-80
2022/07/11 06:15:37;;;;;;;1.17;0.68;;;;;;;;;;5051298;28;20111;-79
2022/07/11 06:18:04;;;;;;;0.98;0.60;;;;;;;;;;5042459;28;20134;-76
2022/07/11 06:20:31;;;;;;;2.72;0.88;;;;;;;;;;5037184;28;20082;-76
2022/07/11 06:22:58;;;;;;;0.55;0.45;;;;;;;;;;5040598;28;20075;-77
2022/07/11 06:25:24;;;;;;;1.30;0.70;;;;;;;;;;5046459;28;20119;-77
2022/07/11 06:27:50;;;;;;;2.97;0.85;;;;;;;;;;5060773;28;20038;-77
2022/07/11 06:30:16;;;;;;;0.63;0.50;;;;;;;;;;5034561;28;20484;-77
2022/07/11 06:32:42;;;;;;;2.22;0.82;;;;;;;;;;5038926;28;20032;-77
2022/07/11 06:35:09;;;;;;;5.50;1.02;;;;;;;;;;5056177;28;20032;-77
2022/07/11 06:37:36;;;;;;;0.82;0.60;;;;;;;;;;5059348;28;20055;-79
2022/07/11 06:40:02;;;;;;;1.63;0.50;;;;;;;;;;5003494;28;20131;-79
2022/07/11 06:42:29;;;;;;;4.82;0.70;;;;;;;;;;5056470;28;20072;-80
2022/07/11 06:44:55;;;;;;;3.47;1.30;;;;;;;;;;5020036;28;20123;-80
2022/07/11 06:47:21;;;;;;;2.45;0.70;;;;;;;;;;5032809;28;20085;-79
2022/07/11 06:49:47;;;;;;;1.77;0.50;;;;;;;;;;5025949;28;20037;-79
2022/07/11 06:52:14;;;;;;;0.57;0.40;;;;;;;;;;5044516;28;20020;-77
2022/07/11 06:54:40;;;;;;;1.13;0.70;;;;;;;;;;5068764;28;20381;-75
2022/07/11 06:57:07;;;;;;;1.90;1.05;;;;;;;;;;5053493;28;20074;-75
2022/07/11 06:59:38;;;;;;;0.82;0.40;;;;;;;;;;5036313;28;20033;-76
2022/07/11 07:02:07;;;;;;;1.05;0.50;;;;;;;;;;5047210;28;20987;-76
2022/07/11 07:04:47;;;;;;;0.50;0.43;;;;;;;;;;5049127;28;20074;-76
2022/07/11 07:07:14;;;;;;;0.85;0.52;;;;;;;;;;5033777;28;20055;-77
2022/07/11 07:09:41;;;;;;;1.73;0.45;;;;;;;;;;5040761;28;20203;-77
2022/07/11 07:12:07;;;;;;;1.15;0.40;;;;;;;;;;5054449;28;20036;-77
2022/07/11 07:14:34;;;;;;;0.50;0.22;;;;;;;;;;5070558;28;20358;-77
2022/07/11 07:17:00;;;;;;;0.30;0.30;;;;;;;;;;5026074;28;20496;-76
2022/07/11 07:19:26;;;;;;;0.90;0.25;;;;;;;;;;5019224;28;20086;-76
2022/07/11 07:21:52;;;;;;;0.25;0.20;;;;;;;;;;5030063;28;20052;-76
2022/07/11 07:24:18;;;;;;;0.28;0.28;;;;;;;;;;5056961;28;20036;-76
2022/07/11 07:26:45;;;;;;;0.40;0.38;;;;;;;;;;5054576;28;20039;-76
2022/07/11 07:29:11;;;;;;;0.30;0.20;;;;;;;;;;5056058;28;20497;-76
2022/07/11 07:31:37;;;;;;;0.73;0.55;;;;;;;;;;5034920;28;20112;-76
2022/07/11 07:34:04;;;;;;;1.70;0.32;;;;;;;;;;5040671;28;20041;-76
2022/07/11 07:36:30;;;;;;;1.08;0.38;;;;;;;;;;5018082;28;20148;-76
2022/07/11 07:39:19;;;;;;;0.38;0.20;;;;;;;;;;5120217;27;20412;-70
2022/07/11 07:41:45;;;;;;;0.25;0.25;;;;;;;;;;5134841;27;20392;-69
2022/07/11 07:44:11;;;;;;;0.30;0.30;;;;;;;;;;5120178;27;20518;-69
2022/07/11 07:46:37;;;;;;;0.57;0.30;;;;;;;;;;5125816;27;20043;-68
2022/07/11 07:49:03;;;;;;;0.40;0.20;;;;;;;;;;5128913;27;20039;-69
2022/07/11 07:51:30;;;;;;;0.77;0.38;;;;;;;;;;5125431;27;20046;-68
2022/07/11 07:53:56;;;;;;;0.30;0.30;;;;;;;;;;5124345;27;20031;-69
2022/07/11 07:56:22;;;;;;;0.55;0.40;;;;;;;;;;5110893;28;20050;-67
2022/07/11 07:58:51;;;;;;;0.65;0.25;;;;;;;;;;5141893;27;20043;-67
2022/07/11 08:01:36;;;;;;;1.00;0.40;;;;;;;;;;5140316;27;20042;-67
2022/07/11 08:04:05;;;;;;;0.45;0.38;;;;;;;;;;5129335;27;20113;-68
2022/07/11 08:06:32;;;;;;;0.63;0.28;;;;;;;;;;5126121;27;20077;-69
2022/07/11 08:08:59;;;;;;;1.50;0.30;;;;;;;;;;5148890;27;20105;-70
2022/07/11 08:11:25;;;;;;;1.17;0.40;;;;;;;;;;5118953;27;20511;-69
2022/07/11 08:13:51;;;;;;;0.30;0.22;;;;;;;;;;5130091;27;20038;-68
2022/07/11 08:16:18;;;;;;;1.02;0.30;;;;;;;;;;5139325;27;20050;-68
2022/07/11 08:18:44;;;;;;;0.60;0.20;;;;;;;;;;5147624;27;20043;-69
2022/07/11 08:21:10;;;;;;;0.25;0.25;;;;;;;;;;5132032;27;20050;-68
2022/07/11 08:23:37;;;;;;;1.33;0.50;;;;;;;;;;5131238;27;20054;-68
2022/07/11 08:26:04;;;;;;;0.73;0.40;;;;;;;;;;5132835;27;20032;-68
2022/07/11 08:28:30;;;;;;;1.10;0.60;;;;;;;;;;5129819;27;20048;-68
2022/07/11 08:30:56;;;;;;;1.05;0.60;;;;;;;;;;5112529;27;20039;-68
2022/07/11 08:33:22;;;;;;;0.73;0.40;;;;;;;;;;5132178;27;20039;-68
2022/07/11 08:35:50;;;;;;;4.95;0.60;;;;;;;;;;5110734;27;20050;-68
2022/07/11 08:38:16;;;;;;;1.85;0.40;;;;;;;;;;5115769;27;20071;-68
2022/07/11 08:40:45;;;;;;;0.30;0.30;;;;;;;;;;5130709;27;20039;-68
2022/07/11 08:43:15;;;;;;;1.45;0.50;;;;;;;;;;5127761;27;20122;-68
2022/07/11 08:45:42;;;;;;;0.88;0.43;;;;;;;;;;5121800;27;20131;-69
2022/07/11 08:48:11;;;;;;;0.85;0.60;;;;;;;;;;5119423;27;20043;-68
2022/07/11 08:50:37;;;;;;;0.45;0.45;;;;;;;;;;5100846;27;20039;-68
2022/07/11 08:53:04;;;;;;;0.50;0.35;;;;;;;;;;5093676;27;20051;-68
2022/07/11 08:55:30;;;;;;;2.47;0.70;;;;;;;;;;5108219;27;20039;-69
2022/07/11 08:57:57;;;;;;;1.65;0.95;;;;;;;;;;5096661;27;20443;-68
2022/07/11 09:00:23;;;;;;;0.30;0.28;;;;;;;;;;5097672;27;20039;-68
2022/07/11 09:02:50;;;;;;;1.40;0.82;;;;;;;;;;5095932;28;20036;-68
2022/07/11 09:05:16;;;;;;;0.47;0.40;;;;;;;;;;5099751;28;20400;-68
2022/07/11 09:07:47;;;;;;;0.45;0.40;;;;;;;;;;5098667;27;20122;-68
2022/07/11 09:10:17;;;;;;;0.25;0.25;;;;;;;;;;5116751;27;20068;-67
2022/07/11 09:13:02;;;;;;;0.88;0.40;;;;;;;;;;5097474;28;20081;-69
2022/07/11 09:15:50;;;;;;;3.40;0.52;;;;;;;;;;5107073;27;20043;-68
2022/07/11 09:18:26;;;;;;;0.65;0.60;;;;;;;;;;5111436;27;20051;-68
2022/07/11 09:26:31;;;;;;;0.40;0.32;;;;;;;;;;5107167;27;20462;-68
2022/07/11 09:29:08;;;;;;;1.08;0.40;;;;;;;;;;5105377;27;20119;-68
2022/07/11 09:31:35;;;;;;;0.40;0.32;;;;;;;;;;5108710;27;20040;-68
2022/07/11 09:34:04;;;;;;;1.02;0.40;;;;;;;;;;5094221;27;20043;-68
2022/07/11 09:36:35;;;;;;;0.35;0.30;;;;;;;;;;5108336;27;20070;-68
2022/07/11 09:39:05;;;;;;;0.38;0.30;;;;;;;;;;5106297;28;20055;-68
2022/07/11 09:41:33;;;;;;;0.88;0.38;;;;;;;;;;5118156;27;20076;-68
2022/07/11 09:44:11;;;;;;;0.55;0.40;;;;;;;;;;5116607;27;20488;-68
2022/07/11 09:46:37;;;;;;;1.75;0.40;;;;;;;;;;5101817;27;20035;-69
2022/07/11 09:49:04;;;;;;;0.25;0.25;;;;;;;;;;5104675;28;20048;-68
2022/07/11 09:51:34;;;;;;;0.20;0.20;;;;;;;;;;5109641;27;20069;-68
2022/07/11 09:54:01;;;;;;;0.32;0.30;;;;;;;;;;5115224;27;20149;-67
2022/07/11 09:56:34;;;;;;;12.80;0.73;;;;;;;;;;5098219;27;20047;-68
2022/07/11 09:59:01;;;;;;;0.38;0.30;;;;;;;;;;5097160;28;20523;-70
2022/07/11 10:01:28;;;;;;;0.40;0.40;;;;;;;;;;5118506;27;20042;-68
2022/07/11 10:03:54;;;;;;;1.55;0.47;;;;;;;;;;5078728;28;20059;-68
2022/07/11 10:06:24;;;;;;;0.73;0.47;;;;;;;;;;5078703;28;20043;-68
2022/07/11 10:08:51;;;;;;;1.80;0.82;;;;;;;;;;5102407;27;20400;-68
2022/07/11 10:11:18;;;;;;;1.30;0.70;;;;;;;;;;5082948;27;20050;-68
2022/07/11 10:13:45;;;;;;;0.50;0.45;;;;;;;;;;5101369;27;20072;-68
2022/07/11 10:16:31;;;;;;;0.30;0.30;;;;;;;;;;5106340;27;20556;-68
2022/07/11 10:19:10;;;;;;;0.45;0.38;;;;;;;;;;5118017;27;20031;-68
2022/07/11 10:21:45;;;;;;;0.82;0.50;;;;;;;;;;5095882;27;20123;-69
2022/07/11 10:24:14;;;;;;;2.45;0.40;;;;;;;;;;5112343;27;20044;-68
2022/07/11 10:26:44;;;;;;;0.35;0.35;;;;;;;;;;5117779;27;20544;-68
2022/07/11 10:29:29;;;;;;;0.30;0.30;;;;;;;;;;5106903;27;20048;-68
2022/07/11 10:32:08;;;;;;;0.65;0.30;;;;;;;;;;5116190;27;20390;-68
2022/07/11 10:34:34;;;;;;;0.35;0.30;;;;;;;;;;5113304;27;20050;-68
2022/07/11 10:37:04;;;;;;;1.05;0.30;;;;;;;;;;5103101;27;20035;-68
2022/07/11 10:39:32;;;;;;;0.32;0.22;;;;;;;;;;5098659;28;20052;-67
2022/07/11 10:41:59;;;;;;;0.43;0.38;;;;;;;;;;5111799;27;20035;-68
2022/07/11 10:44:26;;;;;;;0.63;0.40;;;;;;;;;;5110273;27;20054;-68
2022/07/11 10:46:53;;;;;;;3.13;0.52;;;;;;;;;;5122123;27;20041;-68
2022/07/11 10:49:42;;;;;;;2.25;0.40;;;;;;;;;;5117427;27;20141;-68
2022/07/11 10:52:09;;;;;;;0.57;0.45;;;;;;;;;;5098688;28;20118;-68
2022/07/11 10:54:38;;;;;;;0.50;0.50;;;;;;;;;;5112242;27;20538;-69
2022/07/11 10:57:16;;;;;;;1.02;0.40;;;;;;;;;;5081913;28;20089;-68
2022/07/11 10:59:59;;;;;;;0.30;0.30;;;;;;;;;;5093989;28;20044;-68
2022/07/11 11:02:26;;;;;;;1.73;0.50;;;;;;;;;;5100446;27;20042;-69
2022/07/11 11:04:59;;;;;;;0.90;0.82;;;;;;;;;;5082427;28;20047;-69
2022/07/11 11:07:38;;;;;;;0.50;0.40;;;;;;;;;;5103973;27;20285;-68
2022/07/11 11:10:06;;;;;;;0.55;0.50;;;;;;;;;;5098682;27;20047;-68
2022/07/11 11:12:51;;;;;;;1.90;0.40;;;;;;;;;;5101291;27;20050;-68
2022/07/11 11:15:48;;;;;;;0.32;0.32;;;;;;;;;;5099841;27;20136;-68
2022/07/11 11:18:24;;;;;;;0.47;0.47;;;;;;;;;;5091922;28;20043;-68
2022/07/11 11:21:09;;;;;;;1.13;0.52;;;;;;;;;;5100445;27;20048;-68
2022/07/11 11:23:40;;;;;;;1.83;0.82;;;;;;;;;;5097781;28;20423;-67
2022/07/11 11:26:09;;;;;;;1.98;0.60;;;;;;;;;;5106313;28;20115;-68
2022/07/11 11:28:35;;;;;;;0.90;0.65;;;;;;;;;;5106606;27;20051;-68
2022/07/11 11:31:06;;;;;;;0.55;0.50;;;;;;;;;;5097409;28;20050;-68
2022/07/11 11:33:33;;;;;;;0.30;0.30;;;;;;;;;;5069357;28;20036;-67
2022/07/11 11:35:59;;;;;;;1.42;0.60;;;;;;;;;;5106960;28;20465;-68
2022/07/11 11:38:26;;;;;;;0.85;0.52;;;;;;;;;;5119072;27;20044;-69
2022/07/11 11:40:52;;;;;;;1.73;1.10;;;;;;;;;;5102288;28;20079;-68
2022/07/11 11:43:21;;;;;;;1.40;0.75;;;;;;;;;;5124679;27;20043;-67
2022/07/11 11:45:51;;;;;;;0.98;0.63;;;;;;;;;;5094184;28;20061;-68
2022/07/11 11:48:33;;;;;;;0.45;0.40;;;;;;;;;;5123224;27;20043;-68
2022/07/11 11:51:04;;;;;;;1.33;0.80;;;;;;;;;;5101052;28;20039;-68
2022/07/11 11:53:40;;;;;;;0.82;0.68;;;;;;;;;;5113224;27;20046;-68
2022/07/11 11:56:29;;;;;;;2.40;0.70;;;;;;;;;;5102422;28;20052;-68
2022/07/11 11:59:03;;;;;;;1.20;0.55;;;;;;;;;;5103449;28;20047;-68
2022/07/11 12:01:31;;;;;;;0.40;0.40;;;;;;;;;;5090927;28;20043;-68
2022/07/11 12:03:59;;;;;;;4.70;1.05;;;;;;;;;;5101124;28;20036;-67
2022/07/11 12:06:26;;;;;;;0.93;0.68;;;;;;;;;;5102995;28;20042;-68
2022/07/11 12:08:53;;;;;;;2.25;0.40;;;;;;;;;;5103508;28;20072;-68
2022/07/11 12:11:19;;;;;;;1.67;0.40;;;;;;;;;;5106096;27;20067;-68
2022/07/11 12:13:45;;;;;;;1.70;0.90;;;;;;;;;;5119402;27;20120;-67
2022/07/11 12:19:03;;;;;;;0.50;0.40;;;;;;;;;;5106899;28;20058;-67
2022/07/11 12:21:30;;;;;;;0.63;0.50;;;;;;;;;;5107241;27;20042;-68
2022/07/11 12:24:00;;;;;;;1.52;0.70;;;;;;;;;;5105289;27;20386;-67
2022/07/11 12:26:30;;;;;;;1.70;0.77;;;;;;;;;;5134372;27;20377;-68
2022/07/11 12:29:02;;;;;;;1.50;0.82;;;;;;;;;;5122676;27;20039;-67
2022/07/11 12:31:48;;;;;;;1.73;0.85;;;;;;;;;;5110492;27;20069;-68
2022/07/11 12:34:15;;;;;;;1.20;0.80;;;;;;;;;;5110838;28;20578;-68
2022/07/11 12:36:41;;;;;;;2.83;0.98;;;;;;;;;;5134781;27;20047;-67
2022/07/11 12:39:08;;;;;;;0.75;0.75;;;;;;;;;;5117902;27;20078;-67
2022/07/11 12:41:35;;;;;;;1.90;0.90;;;;;;;;;;5098160;28;20412;-67
2022/07/11 12:46:47;;;;;;;5.18;1.52;;;;;;;;;;5106024;28;20050;-67
2022/07/11 12:49:14;;;;;;;1.10;0.80;;;;;;;;;;5083229;28;20051;-68
2022/07/11 12:51:41;;;;;;;1.65;0.88;;;;;;;;;;5128198;27;20051;-68
2022/07/11 12:54:08;;;;;;;1.60;1.10;;;;;;;;;;5113655;27;20036;-68
2022/07/11 12:56:35;;;;;;;1.10;0.80;;;;;;;;;;5102548;27;20500;-67
2022/07/11 12:59:02;;;;;;;1.30;0.82;;;;;;;;;;5118365;27;20039;-68
2022/07/11 13:01:32;;;;;;;2.22;1.10;;;;;;;;;;5115524;27;20039;-67
2022/07/11 13:03:59;;;;;;;2.53;1.83;;;;;;;;;;5115955;27;20488;-68
2022/07/11 13:09:10;;;;;;;4.40;1.98;;;;;;;;;;5102429;27;20079;-68
2022/07/11 13:11:36;;;;;;;3.30;1.50;;;;;;;;;;5089567;28;20229;-68
2022/07/11 13:14:02;;;;;;;1.88;1.42;;;;;;;;;;5119187;27;20078;-68
2022/07/11 13:16:29;;;;;;;1.63;1.15;;;;;;;;;;5117855;27;20047;-68
2022/07/11 13:18:58;;;;;;;2.05;1.10;;;;;;;;;;5110036;27;20071;-68
2022/07/11 13:21:25;;;;;;;2.72;1.35;;;;;;;;;;5115429;27;20126;-68
2022/07/11 13:23:51;;;;;;;1.33;0.85;;;;;;;;;;5106471;27;20327;-68
2022/07/11 13:26:17;;;;;;;1.50;1.10;;;;;;;;;;5108779;27;20031;-68
2022/07/11 13:28:43;;;;;;;2.50;1.48;;;;;;;;;;5118596;27;20130;-68
2022/07/11 13:31:09;;;;;;;1.48;1.13;;;;;;;;;;5099016;27;20323;-68
2022/07/11 13:33:37;;;;;;;1.23;0.90;;;;;;;;;;5108854;27;20131;-68
2022/07/11 13:36:04;;;;;;;1.73;0.80;;;;;;;;;;5106051;27;20031;-68
2022/07/11 13:38:30;;;;;;;1.02;0.63;;;;;;;;;;5101675;27;20078;-68
2022/07/11 13:40:58;;;;;;;1.25;0.70;;;;;;;;;;5105300;27;20050;-68
2022/07/11 13:43:24;;;;;;;1.17;0.60;;;;;;;;;;5119358;27;20055;-68
2022/07/11 13:45:52;;;;;;;0.93;0.60;;;;;;;;;;5103767;27;20027;-68
2022/07/11 13:48:18;;;;;;;1.23;0.88;;;;;;;;;;5109564;27;20065;-68
2022/07/11 13:50:44;;;;;;;1.33;0.80;;;;;;;;;;5080948;28;20040;-68
2022/07/11 13:53:10;;;;;;;0.93;0.80;;;;;;;;;;5122386;27;20043;-68
2022/07/11 13:55:37;;;;;;;3.50;1.30;;;;;;;;;;5103625;27;20043;-68
2022/07/11 13:58:03;;;;;;;4.47;1.23;;;;;;;;;;5095356;27;20064;-68
2022/07/11 14:00:32;;;;;;;2.80;1.15;;;;;;;;;;5120232;27;20443;-68
2022/07/11 14:02:58;;;;;;;1.67;1.00;;;;;;;;;;5101918;27;20389;-67
2022/07/11 14:05:24;;;;;;;3.75;1.35;;;;;;;;;;5111398;27;20176;-68
2022/07/11 14:07:52;;;;;;;6.75;1.65;;;;;;;;;;5104605;27;20088;-68
2022/07/11 14:10:18;;;;;;;3.50;1.40;;;;;;;;;;5101254;27;20044;-68
2022/07/11 14:12:44;;;;;;;6.03;2.08;;;;;;;;;;5122751;27;20047;-68
2022/07/11 14:15:10;;;;;;;2.47;1.50;;;;;;;;;;5108736;27;20187;-68
2022/07/11 14:17:38;;;;;;;1.85;1.40;;;;;;;;;;5095492;28;20043;-68
2022/07/11 14:20:05;;;;;;;3.03;1.48;;;;;;;;;;5106645;27;20040;-68
2022/07/11 14:22:31;;;;;;;2.47;1.15;;;;;;;;;;5127332;27;20480;-68
2022/07/11 14:24:57;;;;;;;3.28;1.35;;;;;;;;;;5109990;27;20046;-68
2022/07/11 14:27:24;;;;;;;2.20;1.30;;;;;;;;;;5109653;27;20039;-68
2022/07/11 14:29:51;;;;;;;3.08;1.42;;;;;;;;;;5099658;27;20032;-68
2022/07/11 14:32:18;;;;;;;3.58;1.33;;;;;;;;;;5090425;28;20078;-68
2022/07/11 14:34:44;;;;;;;5.80;1.75;;;;;;;;;;5103525;27;20033;-68
2022/07/11 14:37:10;;;;;;;2.40;1.60;;;;;;;;;;5117345;27;20047;-68
2022/07/11 14:39:37;;;;;;;3.13;1.50;;;;;;;;;;5101712;27;20048;-67
2022/07/11 14:42:04;;;;;;;3.88;1.90;;;;;;;;;;5106737;27;20524;-68
2022/07/11 14:44:30;;;;;;;2.45;1.65;;;;;;;;;;5116922;27;20044;-68
2022/07/11 14:46:56;;;;;;;3.80;1.50;;;;;;;;;;5110347;27;20027;-69
2022/07/11 14:49:23;;;;;;;2.80;1.65;;;;;;;;;;5111667;27;20040;-68
2022/07/11 14:51:49;;;;;;;1.52;1.35;;;;;;;;;;5102431;27;20032;-67
2022/07/11 14:54:16;;;;;;;1.90;1.33;;;;;;;;;;5128146;27;20062;-68
2022/07/11 14:56:46;;;;;;;2.40;1.55;;;;;;;;;;5102001;27;20610;-68
2022/07/11 14:59:12;;;;;;;2.40;1.73;;;;;;;;;;5107945;28;20050;-68
2022/07/11 15:01:38;;;;;;;5.68;2.05;;;;;;;;;;5095727;27;20366;-68
2022/07/11 15:04:05;;;;;;;3.70;1.88;;;;;;;;;;5110456;27;20261;-68